Mainsville, Pennsylvania
Current Conditions -  °F | °C
As of 4:53 AM on Friday 21 Nov 2014 (Local Time) from KRYT Reporting Station
Scattered Clouds Scattered Clouds  
Wind Chill: 16°   Ceiling: Unl
Heat Index: 26°   Visibility: 10mi
Dew Point:   Wind: 10mph
Humidity: 47%   Direction: 280°W
Pressure: 30.19"   Gusts: NA
Location:  40.0414°N, 77.4967°W
Report Text: KRYT 210953Z AUTO 28009KT 250V320 10SM SCT055 M03/M13 A3019 RMK AO2 SLP238 T10331133 $
Loading
Personal Weather Stations






























Interactive Weather Map New forecast layout! Learn more

10-Day Weather Forecast

Advertisements
Track Severe Weather on mobile